sensor_id;sensor_type;location;lat;lon;timestamp;pressure;altitude;pressure_sealevel;temperature;humidity
58668;BME280;59852;43.086;25.634;2024-01-27T00:00:05;99371.19;;;1.65;76.52
58668;BME280;59852;43.086;25.634;2024-01-27T00:02:30;99370.66;;;1.52;77.04
58668;BME280;59852;43.086;25.634;2024-01-27T00:04:55;99370.63;;;1.54;76.84
58668;BME280;59852;43.086;25.634;2024-01-27T00:07:21;99375.63;;;1.60;76.15
58668;BME280;59852;43.086;25.634;2024-01-27T00:09:47;99373.38;;;1.46;77.60
58668;BME280;59852;43.086;25.634;2024-01-27T00:12:12;99379.97;;;1.58;76.92
58668;BME280;59852;43.086;25.634;2024-01-27T00:14:38;99374.97;;;1.52;76.94
58668;BME280;59852;43.086;25.634;2024-01-27T00:17:03;99372.53;;;1.46;77.33
58668;BME280;59852;43.086;25.634;2024-01-27T00:19:28;99375.03;;;1.13;78.20
58668;BME280;59852;43.086;25.634;2024-01-27T00:21:54;99378.09;;;1.29;78.09
58668;BME280;59852;43.086;25.634;2024-01-27T00:24:19;99380.25;;;1.46;77.41
58668;BME280;59852;43.086;25.634;2024-01-27T00:26:44;99375.94;;;1.48;76.91
58668;BME280;59852;43.086;25.634;2024-01-27T00:29:10;99379.50;;;1.42;76.85
58668;BME280;59852;43.086;25.634;2024-01-27T00:31:35;99375.19;;;1.42;77.52
58668;BME280;59852;43.086;25.634;2024-01-27T00:34:01;99378.75;;;1.37;77.31
58668;BME280;59852;43.086;25.634;2024-01-27T00:36:27;99376.16;;;1.37;77.47
58668;BME280;59852;43.086;25.634;2024-01-27T00:38:52;99368.44;;;1.37;77.09
58668;BME280;59852;43.086;25.634;2024-01-27T00:41:17;99369.53;;;1.28;77.34
58668;BME280;59852;43.086;25.634;2024-01-27T00:43:43;99357.09;;;1.44;77.44
58668;BME280;59852;43.086;25.634;2024-01-27T00:46:08;99357.28;;;1.36;77.36
58668;BME280;59852;43.086;25.634;2024-01-27T00:48:33;99356.81;;;1.21;77.68
58668;BME280;59852;43.086;25.634;2024-01-27T00:50:59;99354.06;;;1.28;77.75
58668;BME280;59852;43.086;25.634;2024-01-27T00:53:24;99347.19;;;1.29;76.79
58668;BME280;59852;43.086;25.634;2024-01-27T00:55:49;99347.81;;;1.37;77.01
58668;BME280;59852;43.086;25.634;2024-01-27T00:58:15;99346.97;;;1.38;77.10
58668;BME280;59852;43.086;25.634;2024-01-27T01:00:41;99340.97;;;1.36;76.57
58668;BME280;59852;43.086;25.634;2024-01-27T01:03:06;99336.00;;;1.30;76.87
58668;BME280;59852;43.086;25.634;2024-01-27T01:05:31;99343.34;;;1.08;77.79
58668;BME280;59852;43.086;25.634;2024-01-27T01:07:57;99338.84;;;1.18;77.23
58668;BME280;59852;43.086;25.634;2024-01-27T01:10:22;99339.97;;;1.06;77.35
58668;BME280;59852;43.086;25.634;2024-01-27T01:12:48;99333.97;;;1.05;78.07
58668;BME280;59852;43.086;25.634;2024-01-27T01:15:13;99331.97;;;1.18;77.43
58668;BME280;59852;43.086;25.634;2024-01-27T01:17:38;99325.38;;;1.06;77.91
58668;BME280;59852;43.086;25.634;2024-01-27T01:20:04;99331.19;;;1.14;77.44
58668;BME280;59852;43.086;25.634;2024-01-27T01:22:30;99321.97;;;1.04;78.03
58668;BME280;59852;43.086;25.634;2024-01-27T01:24:56;99317.47;;;1.14;77.53
58668;BME280;59852;43.086;25.634;2024-01-27T01:27:21;99313.06;;;1.19;77.35
58668;BME280;59852;43.086;25.634;2024-01-27T01:29:47;99313.72;;;1.26;76.81
58668;BME280;59852;43.086;25.634;2024-01-27T01:32:12;99307.78;;;1.24;76.46
58668;BME280;59852;43.086;25.634;2024-01-27T01:34:37;99313.06;;;1.18;76.91
58668;BME280;59852;43.086;25.634;2024-01-27T01:37:03;99314.22;;;1.06;77.41
58668;BME280;59852;43.086;25.634;2024-01-27T01:39:28;99320.41;;;0.99;78.01
58668;BME280;59852;43.086;25.634;2024-01-27T01:41:54;99310.06;;;1.00;78.29
58668;BME280;59852;43.086;25.634;2024-01-27T01:44:19;99295.91;;;1.17;77.92
58668;BME280;59852;43.086;25.634;2024-01-27T01:46:45;99300.56;;;1.02;77.63
58668;BME280;59852;43.086;25.634;2024-01-27T01:49:10;99296.34;;;1.00;78.15
58668;BME280;59852;43.086;25.634;2024-01-27T01:51:36;99295.50;;;0.98;78.21
58668;BME280;59852;43.086;25.634;2024-01-27T01:54:01;99301.38;;;1.04;78.00
58668;BME280;59852;43.086;25.634;2024-01-27T01:56:27;99307.53;;;0.97;78.17
58668;BME280;59852;43.086;25.634;2024-01-27T01:58:53;99305.50;;;0.74;79.15
58668;BME280;59852;43.086;25.634;2024-01-27T02:01:19;99304.00;;;1.03;78.45
58668;BME280;59852;43.086;25.634;2024-01-27T02:03:56;99301.06;;;1.17;77.12
58668;BME280;59852;43.086;25.634;2024-01-27T02:06:21;99306.44;;;1.09;77.78
58668;BME280;59852;43.086;25.634;2024-01-27T02:08:47;99304.28;;;1.26;76.67
58668;BME280;59852;43.086;25.634;2024-01-27T02:11:12;99306.44;;;1.07;77.24
58668;BME280;59852;43.086;25.634;2024-01-27T02:13:37;99306.94;;;1.23;76.71
58668;BME280;59852;43.086;25.634;2024-01-27T02:16:03;99302.66;;;1.22;76.91
58668;BME280;59852;43.086;25.634;2024-01-27T02:18:28;99298.28;;;1.26;76.67
58668;BME280;59852;43.086;25.634;2024-01-27T02:20:54;99299.56;;;1.08;76.94
58668;BME280;59852;43.086;25.634;2024-01-27T02:23:19;99306.28;;;1.15;77.07
58668;BME280;59852;43.086;25.634;2024-01-27T02:25:45;99309.50;;;1.23;76.53
58668;BME280;59852;43.086;25.634;2024-01-27T02:28:10;99316.03;;;1.02;76.88
58668;BME280;59852;43.086;25.634;2024-01-27T02:30:37;99308.22;;;1.05;77.05
58668;BME280;59852;43.086;25.634;2024-01-27T02:33:03;99303.84;;;1.09;76.66
58668;BME280;59852;43.086;25.634;2024-01-27T02:35:28;99296.22;;;1.04;76.86
58668;BME280;59852;43.086;25.634;2024-01-27T02:37:53;99286.72;;;1.06;76.36
58668;BME280;59852;43.086;25.634;2024-01-27T02:40:19;99280.78;;;1.04;76.33
58668;BME280;59852;43.086;25.634;2024-01-27T02:42:44;99280.06;;;0.98;77.05
58668;BME280;59852;43.086;25.634;2024-01-27T02:45:10;99278.31;;;0.98;76.88
58668;BME280;59852;43.086;25.634;2024-01-27T02:47:38;99276.31;;;1.11;76.46
58668;BME280;59852;43.086;25.634;2024-01-27T02:50:04;99274.00;;;1.00;76.49
58668;BME280;59852;43.086;25.634;2024-01-27T02:52:31;99273.44;;;0.88;77.11
58668;BME280;59852;43.086;25.634;2024-01-27T02:54:56;99279.56;;;0.83;77.89
58668;BME280;59852;43.086;25.634;2024-01-27T02:57:22;99288.13;;;0.84;78.11
58668;BME280;59852;43.086;25.634;2024-01-27T02:59:47;99289.28;;;0.71;78.35
58668;BME280;59852;43.086;25.634;2024-01-27T03:02:13;99289.34;;;0.68;78.25
58668;BME280;59852;43.086;25.634;2024-01-27T03:04:38;99277.16;;;0.76;77.77
58668;BME280;59852;43.086;25.634;2024-01-27T03:07:03;99278.97;;;0.72;78.48
58668;BME280;59852;43.086;25.634;2024-01-27T03:09:30;99266.72;;;0.82;77.81
58668;BME280;59852;43.086;25.634;2024-01-27T03:11:55;99266.53;;;0.90;77.31
58668;BME280;59852;43.086;25.634;2024-01-27T03:14:21;99254.31;;;0.98;76.86
58668;BME280;59852;43.086;25.634;2024-01-27T03:16:46;99252.44;;;1.04;76.95
58668;BME280;59852;43.086;25.634;2024-01-27T03:19:11;99247.25;;;1.06;76.66
58668;BME280;59852;43.086;25.634;2024-01-27T03:21:37;99238.34;;;1.19;75.64
58668;BME280;59852;43.086;25.634;2024-01-27T03:24:02;99236.56;;;1.21;75.60
58668;BME280;59852;43.086;25.634;2024-01-27T03:26:28;99220.44;;;1.13;75.85
58668;BME280;59852;43.086;25.634;2024-01-27T03:28:53;99221.75;;;0.95;77.41
58668;BME280;59852;43.086;25.634;2024-01-27T03:31:18;99226.41;;;0.81;78.09
58668;BME280;59852;43.086;25.634;2024-01-27T03:33:44;99211.00;;;0.78;78.30
58668;BME280;59852;43.086;25.634;2024-01-27T03:36:10;99218.38;;;0.93;77.56
58668;BME280;59852;43.086;25.634;2024-01-27T03:38:36;99217.63;;;0.88;78.11
58668;BME280;59852;43.086;25.634;2024-01-27T03:41:02;99228.91;;;0.84;77.79
58668;BME280;59852;43.086;25.634;2024-01-27T03:43:27;99231.47;;;0.84;77.89
58668;BME280;59852;43.086;25.634;2024-01-27T03:45:53;99232.19;;;0.91;77.79
58668;BME280;59852;43.086;25.634;2024-01-27T03:48:18;99231.38;;;0.87;77.97
58668;BME280;59852;43.086;25.634;2024-01-27T03:50:43;99218.50;;;0.87;77.72
58668;BME280;59852;43.086;25.634;2024-01-27T03:53:09;99213.88;;;1.01;77.27
58668;BME280;59852;43.086;25.634;2024-01-27T03:55:35;99220.69;;;1.04;77.25
58668;BME280;59852;43.086;25.634;2024-01-27T03:58:00;99215.44;;;1.08;76.95
58668;BME280;59852;43.086;25.634;2024-01-27T04:00:26;99212.81;;;1.10;76.67
58668;BME280;59852;43.086;25.634;2024-01-27T04:02:52;99214.44;;;1.12;77.35
58668;BME280;59852;43.086;25.634;2024-01-27T04:05:18;99219.84;;;1.03;77.61
58668;BME280;59852;43.086;25.634;2024-01-27T04:07:43;99214.59;;;1.06;77.02
58668;BME280;59852;43.086;25.634;2024-01-27T04:10:08;99212.03;;;1.06;76.82
58668;BME280;59852;43.086;25.634;2024-01-27T04:12:34;99219.66;;;1.11;76.83
58668;BME280;59852;43.086;25.634;2024-01-27T04:14:59;99214.59;;;1.06;76.90
58668;BME280;59852;43.086;25.634;2024-01-27T04:17:24;99208.91;;;0.94;77.26
58668;BME280;59852;43.086;25.634;2024-01-27T04:19:50;99215.03;;;0.90;77.75
58668;BME280;59852;43.086;25.634;2024-01-27T04:22:15;99211.53;;;0.92;77.93
58668;BME280;59852;43.086;25.634;2024-01-27T04:24:41;99202.16;;;0.90;77.55
58668;BME280;59852;43.086;25.634;2024-01-27T04:27:06;99196.09;;;0.92;77.79
58668;BME280;59852;43.086;25.634;2024-01-27T04:29:31;99187.03;;;1.10;76.97
58668;BME280;59852;43.086;25.634;2024-01-27T04:31:57;99185.78;;;1.25;76.39
58668;BME280;59852;43.086;25.634;2024-01-27T04:34:22;99170.31;;;1.25;76.23
58668;BME280;59852;43.086;25.634;2024-01-27T04:36:47;99183.09;;;1.29;75.82
58668;BME280;59852;43.086;25.634;2024-01-27T04:39:13;99177.00;;;1.32;75.67
58668;BME280;59852;43.086;25.634;2024-01-27T04:41:42;99176.31;;;1.25;76.33
58668;BME280;59852;43.086;25.634;2024-01-27T04:44:08;99168.38;;;1.33;76.44
58668;BME280;59852;43.086;25.634;2024-01-27T04:46:33;99180.47;;;1.31;76.20
58668;BME280;59852;43.086;25.634;2024-01-27T04:48:58;99185.63;;;1.31;76.37
58668;BME280;59852;43.086;25.634;2024-01-27T04:51:24;99181.53;;;1.24;77.27
58668;BME280;59852;43.086;25.634;2024-01-27T04:53:49;99184.00;;;1.28;76.91
58668;BME280;59852;43.086;25.634;2024-01-27T04:56:15;99190.53;;;1.40;77.40
58668;BME280;59852;43.086;25.634;2024-01-27T04:58:40;99193.16;;;1.38;78.20
58668;BME280;59852;43.086;25.634;2024-01-27T05:01:06;99185.59;;;1.32;78.93
58668;BME280;59852;43.086;25.634;2024-01-27T05:03:31;99185.44;;;1.37;77.82
58668;BME280;59852;43.086;25.634;2024-01-27T05:05:57;99182.88;;;1.37;77.08
58668;BME280;59852;43.086;25.634;2024-01-27T05:08:22;99179.19;;;1.46;77.12
58668;BME280;59852;43.086;25.634;2024-01-27T05:10:48;99182.50;;;1.51;75.79
58668;BME280;59852;43.086;25.634;2024-01-27T05:13:13;99176.63;;;1.46;76.55
58668;BME280;59852;43.086;25.634;2024-01-27T05:15:38;99179.44;;;1.36;77.00
58668;BME280;59852;43.086;25.634;2024-01-27T05:18:04;99168.06;;;1.45;76.95
58668;BME280;59852;43.086;25.634;2024-01-27T05:20:29;99163.47;;;1.55;75.90
58668;BME280;59852;43.086;25.634;2024-01-27T05:22:54;99164.25;;;1.58;75.77
58668;BME280;59852;43.086;25.634;2024-01-27T05:25:20;99163.81;;;1.73;74.54
58668;BME280;59852;43.086;25.634;2024-01-27T05:27:45;99164.53;;;1.79;73.99
58668;BME280;59852;43.086;25.634;2024-01-27T05:30:10;99163.69;;;1.78;73.82
58668;BME280;59852;43.086;25.634;2024-01-27T05:32:36;99161.13;;;1.77;73.77
58668;BME280;59852;43.086;25.634;2024-01-27T05:35:01;99172.00;;;1.88;73.01
58668;BME280;59852;43.086;25.634;2024-01-27T05:37:28;99171.19;;;1.86;73.44
58668;BME280;59852;43.086;25.634;2024-01-27T05:39:53;99180.53;;;1.90;73.38
58668;BME280;59852;43.086;25.634;2024-01-27T05:42:19;99172.69;;;1.93;73.04
58668;BME280;59852;43.086;25.634;2024-01-27T05:44:44;99165.69;;;1.98;73.19
58668;BME280;59852;43.086;25.634;2024-01-27T05:47:10;99168.34;;;1.95;73.18
58668;BME280;59852;43.086;25.634;2024-01-27T05:49:36;99161.41;;;1.97;73.20
58668;BME280;59852;43.086;25.634;2024-01-27T05:52:01;99164.03;;;1.95;73.53
58668;BME280;59852;43.086;25.634;2024-01-27T05:54:26;99163.09;;;1.98;73.74
58668;BME280;59852;43.086;25.634;2024-01-27T05:56:52;99156.22;;;1.98;74.08
58668;BME280;59852;43.086;25.634;2024-01-27T05:59:17;99157.69;;;2.06;73.49
58668;BME280;59852;43.086;25.634;2024-01-27T06:01:42;99159.63;;;1.99;74.00
58668;BME280;59852;43.086;25.634;2024-01-27T06:04:09;99156.84;;;2.05;73.98
58668;BME280;59852;43.086;25.634;2024-01-27T06:06:37;99162.69;;;2.12;73.60
58668;BME280;59852;43.086;25.634;2024-01-27T06:09:03;99169.69;;;2.08;73.37
58668;BME280;59852;43.086;25.634;2024-01-27T06:11:28;99173.31;;;2.01;75.50
58668;BME280;59852;43.086;25.634;2024-01-27T06:13:54;99175.13;;;1.99;74.94
58668;BME280;59852;43.086;25.634;2024-01-27T06:16:19;99177.38;;;2.10;74.75
58668;BME280;59852;43.086;25.634;2024-01-27T06:18:44;99185.09;;;2.10;75.16
58668;BME280;59852;43.086;25.634;2024-01-27T06:21:10;99186.06;;;2.07;75.10
58668;BME280;59852;43.086;25.634;2024-01-27T06:23:35;99188.38;;;2.15;74.94
58668;BME280;59852;43.086;25.634;2024-01-27T06:26:07;99203.06;;;2.13;75.89
58668;BME280;59852;43.086;25.634;2024-01-27T06:28:32;99206.06;;;2.28;75.57
58668;BME280;59852;43.086;25.634;2024-01-27T06:30:57;99195.16;;;2.19;76.97
58668;BME280;59852;43.086;25.634;2024-01-27T06:33:23;99195.00;;;2.23;78.93
58668;BME280;59852;43.086;25.634;2024-01-27T06:35:48;99200.97;;;1.96;81.44
58668;BME280;59852;43.086;25.634;2024-01-27T06:38:13;99211.41;;;1.93;82.68
58668;BME280;59852;43.086;25.634;2024-01-27T06:40:39;99207.19;;;1.90;84.33
58668;BME280;59852;43.086;25.634;2024-01-27T06:43:04;99211.50;;;1.90;85.70
58668;BME280;59852;43.086;25.634;2024-01-27T06:45:30;99212.69;;;1.78;88.53
58668;BME280;59852;43.086;25.634;2024-01-27T06:47:55;99215.22;;;1.80;88.53
58668;BME280;59852;43.086;25.634;2024-01-27T06:50:21;99210.72;;;1.86;89.83
58668;BME280;59852;43.086;25.634;2024-01-27T06:52:48;99210.13;;;1.77;91.23
58668;BME280;59852;43.086;25.634;2024-01-27T06:55:13;99208.78;;;1.63;92.46
58668;BME280;59852;43.086;25.634;2024-01-27T06:57:38;99208.19;;;1.54;93.79
58668;BME280;59852;43.086;25.634;2024-01-27T07:00:06;99203.63;;;1.63;94.07
58668;BME280;59852;43.086;25.634;2024-01-27T07:02:31;99206.75;;;1.75;94.05
58668;BME280;59852;43.086;25.634;2024-01-27T07:04:56;99207.44;;;1.81;93.98
58668;BME280;59852;43.086;25.634;2024-01-27T07:07:23;99198.19;;;1.74;95.59
58668;BME280;59852;43.086;25.634;2024-01-27T07:09:49;99192.94;;;1.77;96.27
58668;BME280;59852;43.086;25.634;2024-01-27T07:12:14;99205.03;;;1.75;97.10
58668;BME280;59852;43.086;25.634;2024-01-27T07:14:40;99194.66;;;1.77;97.76
58668;BME280;59852;43.086;25.634;2024-01-27T07:17:06;99192.81;;;1.82;98.13
58668;BME280;59852;43.086;25.634;2024-01-27T07:19:31;99186.22;;;1.71;98.13
58668;BME280;59852;43.086;25.634;2024-01-27T07:21:57;99182.59;;;1.79;98.24
58668;BME280;59852;43.086;25.634;2024-01-27T07:24:22;99181.19;;;1.67;98.09
58668;BME280;59852;43.086;25.634;2024-01-27T07:26:48;99171.28;;;1.83;98.42
58668;BME280;59852;43.086;25.634;2024-01-27T07:29:13;99184.44;;;1.73;98.26
58668;BME280;59852;43.086;25.634;2024-01-27T07:31:38;99168.22;;;1.70;99.07
58668;BME280;59852;43.086;25.634;2024-01-27T07:34:04;99176.25;;;1.59;99.74
58668;BME280;59852;43.086;25.634;2024-01-27T07:36:31;99163.28;;;1.62;100.00
58668;BME280;59852;43.086;25.634;2024-01-27T07:38:57;99170.84;;;1.68;99.73
58668;BME280;59852;43.086;25.634;2024-01-27T07:41:23;99166.47;;;1.70;99.24
58668;BME280;59852;43.086;25.634;2024-01-27T07:43:48;99167.38;;;1.69;100.00
58668;BME280;59852;43.086;25.634;2024-01-27T07:46:13;99157.47;;;1.54;100.00
58668;BME280;59852;43.086;25.634;2024-01-27T07:48:39;99163.22;;;1.64;100.00
58668;BME280;59852;43.086;25.634;2024-01-27T07:51:04;99157.00;;;1.71;100.00
58668;BME280;59852;43.086;25.634;2024-01-27T07:53:29;99154.28;;;1.76;100.00
58668;BME280;59852;43.086;25.634;2024-01-27T07:55:55;99153.31;;;1.80;100.00
58668;BME280;59852;43.086;25.634;2024-01-27T07:58:21;99148.06;;;1.83;100.00
58668;BME280;59852;43.086;25.634;2024-01-27T08:00:46;99146.22;;;1.88;100.00
58668;BME280;59852;43.086;25.634;2024-01-27T08:03:12;99145.13;;;1.65;100.00
58668;BME280;59852;43.086;25.634;2024-01-27T08:05:37;99144.75;;;1.79;100.00
58668;BME280;59852;43.086;25.634;2024-01-27T08:08:03;99145.84;;;1.70;100.00
58668;BME280;59852;43.086;25.634;2024-01-27T08:10:28;99143.97;;;1.76;100.00
58668;BME280;59852;43.086;25.634;2024-01-27T08:12:54;99146.69;;;1.71;100.00
58668;BME280;59852;43.086;25.634;2024-01-27T08:15:19;99151.28;;;1.91;100.00
58668;BME280;59852;43.086;25.634;2024-01-27T08:17:44;99152.13;;;1.91;100.00
58668;BME280;59852;43.086;25.634;2024-01-27T08:20:10;99156.38;;;1.92;100.00
58668;BME280;59852;43.086;25.634;2024-01-27T08:22:35;99157.53;;;1.82;100.00
58668;BME280;59852;43.086;25.634;2024-01-27T08:25:01;99161.16;;;1.46;100.00
58668;BME280;59852;43.086;25.634;2024-01-27T08:27:26;99162.47;;;1.60;100.00
58668;BME280;59852;43.086;25.634;2024-01-27T08:29:51;99160.75;;;1.61;100.00
58668;BME280;59852;43.086;25.634;2024-01-27T08:32:17;99162.38;;;1.63;100.00
58668;BME280;59852;43.086;25.634;2024-01-27T08:34:43;99175.44;;;1.57;100.00
58668;BME280;59852;43.086;25.634;2024-01-27T08:37:15;99167.59;;;1.62;100.00
58668;BME280;59852;43.086;25.634;2024-01-27T08:39:43;99162.28;;;1.66;100.00
58668;BME280;59852;43.086;25.634;2024-01-27T08:42:09;99165.94;;;1.59;100.00
58668;BME280;59852;43.086;25.634;2024-01-27T08:44:34;99160.22;;;1.50;100.00
58668;BME280;59852;43.086;25.634;2024-01-27T08:47:00;99159.53;;;1.72;100.00
58668;BME280;59852;43.086;25.634;2024-01-27T08:49:25;99162.97;;;1.73;100.00
58668;BME280;59852;43.086;25.634;2024-01-27T08:51:51;99159.59;;;1.71;100.00
58668;BME280;59852;43.086;25.634;2024-01-27T08:54:16;99158.88;;;1.66;100.00
58668;BME280;59852;43.086;25.634;2024-01-27T08:56:41;99165.75;;;1.65;100.00
58668;BME280;59852;43.086;25.634;2024-01-27T08:59:07;99160.56;;;1.67;100.00
58668;BME280;59852;43.086;25.634;2024-01-27T09:01:32;99158.84;;;1.67;100.00
58668;BME280;59852;43.086;25.634;2024-01-27T09:03:57;99156.69;;;1.82;100.00
58668;BME280;59852;43.086;25.634;2024-01-27T09:06:23;99155.59;;;1.90;100.00
58668;BME280;59852;43.086;25.634;2024-01-27T09:08:48;99152.34;;;1.84;100.00
58668;BME280;59852;43.086;25.634;2024-01-27T09:11:13;99162.16;;;2.00;100.00
58668;BME280;59852;43.086;25.634;2024-01-27T09:13:39;99161.44;;;3.03;100.00
58668;BME280;59852;43.086;25.634;2024-01-27T09:16:04;99156.50;;;3.22;100.00
58668;BME280;59852;43.086;25.634;2024-01-27T09:18:29;99166.06;;;3.44;100.00
58668;BME280;59852;43.086;25.634;2024-01-27T09:20:55;99162.94;;;3.35;100.00
58668;BME280;59852;43.086;25.634;2024-01-27T09:23:20;99167.34;;;3.56;100.00
58668;BME280;59852;43.086;25.634;2024-01-27T09:25:45;99172.25;;;3.64;100.00
58668;BME280;59852;43.086;25.634;2024-01-27T09:28:11;99167.06;;;3.64;100.00
58668;BME280;59852;43.086;25.634;2024-01-27T09:30:37;99173.13;;;3.63;100.00
58668;BME280;59852;43.086;25.634;2024-01-27T09:33:03;99178.16;;;3.67;100.00
58668;BME280;59852;43.086;25.634;2024-01-27T09:35:28;99175.50;;;3.69;100.00
58668;BME280;59852;43.086;25.634;2024-01-27T09:37:53;99178.88;;;3.71;100.00
58668;BME280;59852;43.086;25.634;2024-01-27T09:40:19;99177.38;;;3.65;100.00
58668;BME280;59852;43.086;25.634;2024-01-27T09:42:50;99184.50;;;3.59;100.00
58668;BME280;59852;43.086;25.634;2024-01-27T09:45:17;99179.00;;;3.68;100.00
58668;BME280;59852;43.086;25.634;2024-01-27T09:47:42;99180.16;;;3.59;100.00
58668;BME280;59852;43.086;25.634;2024-01-27T09:50:09;99179.25;;;3.60;100.00
58668;BME280;59852;43.086;25.634;2024-01-27T09:52:36;99180.03;;;3.62;100.00
58668;BME280;59852;43.086;25.634;2024-01-27T09:55:01;99175.63;;;3.66;100.00
58668;BME280;59852;43.086;25.634;2024-01-27T09:57:27;99177.56;;;3.59;100.00
58668;BME280;59852;43.086;25.634;2024-01-27T09:59:53;99181.06;;;3.58;100.00
58668;BME280;59852;43.086;25.634;2024-01-27T10:02:19;99191.19;;;3.64;100.00
58668;BME280;59852;43.086;25.634;2024-01-27T10:04:47;99179.00;;;3.68;100.00
58668;BME280;59852;43.086;25.634;2024-01-27T10:07:13;99179.31;;;3.59;100.00
58668;BME280;59852;43.086;25.634;2024-01-27T10:09:38;99175.84;;;3.60;100.00
58668;BME280;59852;43.086;25.634;2024-01-27T10:12:06;99172.25;;;3.64;100.00
58668;BME280;59852;43.086;25.634;2024-01-27T10:14:39;99186.19;;;3.60;100.00
58668;BME280;59852;43.086;25.634;2024-01-27T10:17:05;99184.81;;;3.73;100.00
58668;BME280;59852;43.086;25.634;2024-01-27T10:19:30;99184.47;;;3.82;100.00
58668;BME280;59852;43.086;25.634;2024-01-27T10:22:02;99181.41;;;3.72;100.00
58668;BME280;59852;43.086;25.634;2024-01-27T10:24:28;99183.81;;;3.77;100.00
58668;BME280;59852;43.086;25.634;2024-01-27T10:26:58;99188.25;;;3.73;100.00
58668;BME280;59852;43.086;25.634;2024-01-27T10:29:24;99179.66;;;3.73;100.00
58668;BME280;59852;43.086;25.634;2024-01-27T10:31:49;99189.16;;;3.72;100.00
58668;BME280;59852;43.086;25.634;2024-01-27T10:34:14;99184.09;;;3.69;100.00
58668;BME280;59852;43.086;25.634;2024-01-27T10:36:44;99183.13;;;3.72;100.00
58668;BME280;59852;43.086;25.634;2024-01-27T10:41:41;99191.03;;;3.69;100.00
58668;BME280;59852;43.086;25.634;2024-01-27T10:44:09;99195.09;;;3.76;100.00
58668;BME280;59852;43.086;25.634;2024-01-27T10:46:37;99190.91;;;3.72;100.00
58668;BME280;59852;43.086;25.634;2024-01-27T10:49:03;99189.06;;;3.76;100.00
58668;BME280;59852;43.086;25.634;2024-01-27T10:51:30;99180.41;;;3.77;100.00
58668;BME280;59852;43.086;25.634;2024-01-27T10:53:58;99185.66;;;3.73;100.00
58668;BME280;59852;43.086;25.634;2024-01-27T10:56:25;99180.22;;;3.81;100.00
58668;BME280;59852;43.086;25.634;2024-01-27T10:58:52;99187.38;;;3.74;100.00
58668;BME280;59852;43.086;25.634;2024-01-27T11:01:18;99189.63;;;3.84;100.00
58668;BME280;59852;43.086;25.634;2024-01-27T11:03:46;99192.75;;;3.92;100.00
58668;BME280;59852;43.086;25.634;2024-01-27T11:06:12;99197.22;;;3.88;100.00
58668;BME280;59852;43.086;25.634;2024-01-27T11:08:38;99197.41;;;3.82;100.00
58668;BME280;59852;43.086;25.634;2024-01-27T11:11:03;99196.38;;;3.88;100.00
58668;BME280;59852;43.086;25.634;2024-01-27T11:13:29;99207.44;;;3.91;100.00
58668;BME280;59852;43.086;25.634;2024-01-27T11:15:55;99195.47;;;3.89;100.00
58668;BME280;59852;43.086;25.634;2024-01-27T11:18:21;99193.00;;;3.86;100.00
58668;BME280;59852;43.086;25.634;2024-01-27T11:20:46;99194.50;;;3.91;100.00
58668;BME280;59852;43.086;25.634;2024-01-27T11:23:12;99203.94;;;3.92;100.00
58668;BME280;59852;43.086;25.634;2024-01-27T11:25:39;99209.19;;;3.91;100.00
58668;BME280;59852;43.086;25.634;2024-01-27T11:28:14;99204.91;;;3.90;100.00
58668;BME280;59852;43.086;25.634;2024-01-27T11:30:40;99208.97;;;3.97;100.00
58668;BME280;59852;43.086;25.634;2024-01-27T11:33:09;99214.09;;;3.98;100.00
58668;BME280;59852;43.086;25.634;2024-01-27T11:35:35;99216.84;;;3.94;100.00
58668;BME280;59852;43.086;25.634;2024-01-27T11:38:01;99216.00;;;3.93;100.00
58668;BME280;59852;43.086;25.634;2024-01-27T11:40:26;99222.25;;;3.88;100.00
58668;BME280;59852;43.086;25.634;2024-01-27T11:43:01;99229.28;;;3.84;100.00
58668;BME280;59852;43.086;25.634;2024-01-27T11:45:27;99217.00;;;3.89;100.00
58668;BME280;59852;43.086;25.634;2024-01-27T11:47:55;99226.63;;;3.86;100.00
58668;BME280;59852;43.086;25.634;2024-01-27T11:50:21;99225.03;;;3.82;100.00
58668;BME280;59852;43.086;25.634;2024-01-27T11:52:46;99230.97;;;3.85;100.00
58668;BME280;59852;43.086;25.634;2024-01-27T11:55:12;99228.47;;;3.82;100.00
58668;BME280;59852;43.086;25.634;2024-01-27T11:57:40;99224.13;;;3.83;100.00
58668;BME280;59852;43.086;25.634;2024-01-27T12:00:06;99235.13;;;3.89;100.00
58668;BME280;59852;43.086;25.634;2024-01-27T12:02:31;99228.06;;;3.93;100.00
58668;BME280;59852;43.086;25.634;2024-01-27T12:04:57;99228.06;;;3.94;100.00
58668;BME280;59852;43.086;25.634;2024-01-27T12:07:22;99235.00;;;3.92;100.00
58668;BME280;59852;43.086;25.634;2024-01-27T12:09:50;99243.59;;;3.93;100.00
58668;BME280;59852;43.086;25.634;2024-01-27T12:12:16;99228.25;;;3.88;100.00
58668;BME280;59852;43.086;25.634;2024-01-27T12:14:45;99245.91;;;4.00;100.00
58668;BME280;59852;43.086;25.634;2024-01-27T12:17:10;99240.88;;;3.97;100.00
58668;BME280;59852;43.086;25.634;2024-01-27T12:19:36;99242.38;;;4.03;100.00
58668;BME280;59852;43.086;25.634;2024-01-27T12:22:02;99248.44;;;4.02;100.00
58668;BME280;59852;43.086;25.634;2024-01-27T12:24:28;99245.59;;;4.10;100.00
58668;BME280;59852;43.086;25.634;2024-01-27T12:26:54;99235.72;;;4.19;100.00
58668;BME280;59852;43.086;25.634;2024-01-27T12:29:20;99239.44;;;4.12;100.00
58668;BME280;59852;43.086;25.634;2024-01-27T12:31:45;99244.69;;;4.11;100.00
58668;BME280;59852;43.086;25.634;2024-01-27T12:34:11;99241.53;;;4.26;100.00
58668;BME280;59852;43.086;25.634;2024-01-27T12:36:40;99246.72;;;4.26;100.00
58668;BME280;59852;43.086;25.634;2024-01-27T12:39:05;99246.59;;;4.29;100.00
58668;BME280;59852;43.086;25.634;2024-01-27T12:41:31;99244.56;;;4.37;100.00
58668;BME280;59852;43.086;25.634;2024-01-27T12:43:58;99251.28;;;4.41;99.98
58668;BME280;59852;43.086;25.634;2024-01-27T12:46:24;99243.66;;;4.38;100.00
58668;BME280;59852;43.086;25.634;2024-01-27T12:48:49;99249.06;;;4.32;100.00